createdAt,value
2022-11-09T00:03:59.088Z,96570.47
2022-11-09T00:08:51.536Z,96561.22
2022-11-09T00:13:45.211Z,96572.53
2022-11-09T00:18:38.505Z,96577.59
2022-11-09T00:23:30.931Z,96561.72
2022-11-09T00:28:22.622Z,96562.63
2022-11-09T00:33:14.656Z,96554.25
2022-11-09T00:38:06.479Z,96557.84
2022-11-09T00:42:58.202Z,96562.63
2022-11-09T00:47:49.977Z,96561.00
2022-11-09T00:52:41.661Z,96564.25
2022-11-09T00:57:33.327Z,96554.03
2022-11-09T01:02:24.998Z,96538.38
2022-11-09T01:07:16.779Z,96562.34
2022-11-09T01:12:08.607Z,96550.78
2022-11-09T01:17:00.287Z,96552.78
2022-11-09T01:21:52.037Z,96534.50
2022-11-09T01:26:43.717Z,96531.84
2022-11-09T01:31:35.428Z,96527.97
2022-11-09T01:36:27.093Z,96530.38
2022-11-09T01:41:25.883Z,96540.47
2022-11-09T01:46:34.734Z,96539.72
2022-11-09T01:51:45.659Z,96536.84
2022-11-09T01:56:38.820Z,96545.69
2022-11-09T02:01:33.381Z,96544.94
2022-11-09T02:06:30.124Z,96538.19
2022-11-09T02:11:24.552Z,96556.03
2022-11-09T02:16:18.323Z,96544.63
2022-11-09T02:21:10.038Z,96543.81
2022-11-09T02:26:10.698Z,96547.63
2022-11-09T02:31:06.000Z,96551.63
2022-11-09T02:35:57.701Z,96542.59
2022-11-09T02:40:52.672Z,96528.56
2022-11-09T02:45:44.410Z,96534.16
2022-11-09T02:50:36.983Z,96529.53
2022-11-09T02:55:28.712Z,96521.47
2022-11-09T03:00:20.504Z,96529.66
2022-11-09T03:05:12.305Z,96508.78
2022-11-09T03:10:04.384Z,96505.56
2022-11-09T03:15:02.872Z,96518.16
2022-11-09T03:19:55.359Z,96513.09
2022-11-09T03:24:47.532Z,96515.47
2022-11-09T03:29:39.599Z,96519.56
2022-11-09T03:34:31.345Z,96526.09
2022-11-09T03:39:23.648Z,96537.69
2022-11-09T03:44:15.412Z,96535.97
2022-11-09T03:49:07.090Z,96539.34
2022-11-09T03:53:58.857Z,96545.31
2022-11-09T03:58:50.592Z,96555.19
2022-11-09T04:03:42.294Z,96568.69
2022-11-09T04:08:33.981Z,96568.22
2022-11-09T04:13:25.675Z,96577.19
2022-11-09T04:18:17.657Z,96600.69
2022-11-09T04:23:13.171Z,96611.88
2022-11-09T04:28:07.267Z,96611.22
2022-11-09T04:33:00.695Z,96617.06
2022-11-09T04:38:08.446Z,96632.25
2022-11-09T04:43:06.924Z,96629.22
2022-11-09T04:48:05.353Z,96633.34
2022-11-09T04:53:09.758Z,96627.34
2022-11-09T04:58:01.732Z,96624.06
2022-11-09T17:55:30.347Z,96889.41
